sensor_id;sensor_type;location;lat;lon;timestamp;temperature;humidity
34644;DHT22;26931;43.498;-1.506;2023-05-07T00:01:57;19.00;99.20
34644;DHT22;26931;43.498;-1.506;2023-05-07T00:04:23;19.10;99.20
34644;DHT22;26931;43.498;-1.506;2023-05-07T00:06:50;19.10;99.20
34644;DHT22;26931;43.498;-1.506;2023-05-07T00:09:16;19.10;99.20
34644;DHT22;26931;43.498;-1.506;2023-05-07T00:11:42;19.10;99.20
34644;DHT22;26931;43.498;-1.506;2023-05-07T00:14:08;19.00;99.30
34644;DHT22;26931;43.498;-1.506;2023-05-07T00:16:35;19.00;99.30
34644;DHT22;26931;43.498;-1.506;2023-05-07T00:19:01;19.00;99.30
34644;DHT22;26931;43.498;-1.506;2023-05-07T00:21:27;19.00;99.40
34644;DHT22;26931;43.498;-1.506;2023-05-07T00:23:54;19.00;99.40
34644;DHT22;26931;43.498;-1.506;2023-05-07T00:26:20;19.10;99.40
34644;DHT22;26931;43.498;-1.506;2023-05-07T00:28:46;19.20;99.30
34644;DHT22;26931;43.498;-1.506;2023-05-07T00:31:12;19.10;99.30
34644;DHT22;26931;43.498;-1.506;2023-05-07T00:33:38;19.10;99.20
34644;DHT22;26931;43.498;-1.506;2023-05-07T00:36:04;19.30;99.20
34644;DHT22;26931;43.498;-1.506;2023-05-07T00:38:31;19.10;99.20
34644;DHT22;26931;43.498;-1.506;2023-05-07T00:40:57;19.10;99.10
34644;DHT22;26931;43.498;-1.506;2023-05-07T00:43:23;19.10;99.10
34644;DHT22;26931;43.498;-1.506;2023-05-07T00:45:49;19.10;99.10
34644;DHT22;26931;43.498;-1.506;2023-05-07T00:48:15;18.90;99.00
34644;DHT22;26931;43.498;-1.506;2023-05-07T00:50:42;19.20;99.10
34644;DHT22;26931;43.498;-1.506;2023-05-07T00:53:08;19.10;99.10
34644;DHT22;26931;43.498;-1.506;2023-05-07T00:55:35;19.20;99.40
34644;DHT22;26931;43.498;-1.506;2023-05-07T00:58:02;19.10;99.10
34644;DHT22;26931;43.498;-1.506;2023-05-07T01:00:28;19.10;99.10
34644;DHT22;26931;43.498;-1.506;2023-05-07T01:02:54;19.10;99.10
34644;DHT22;26931;43.498;-1.506;2023-05-07T01:05:22;19.10;99.10
34644;DHT22;26931;43.498;-1.506;2023-05-07T01:07:50;19.10;99.10
34644;DHT22;26931;43.498;-1.506;2023-05-07T01:10:18;19.10;99.10
34644;DHT22;26931;43.498;-1.506;2023-05-07T01:12:44;19.10;99.20
34644;DHT22;26931;43.498;-1.506;2023-05-07T01:15:11;19.10;99.20
34644;DHT22;26931;43.498;-1.506;2023-05-07T01:17:40;19.00;99.20
34644;DHT22;26931;43.498;-1.506;2023-05-07T01:20:07;19.00;99.30
34644;DHT22;26931;43.498;-1.506;2023-05-07T01:22:37;19.00;99.30
34644;DHT22;26931;43.498;-1.506;2023-05-07T01:25:05;19.00;99.30
34644;DHT22;26931;43.498;-1.506;2023-05-07T01:27:31;19.00;99.20
34644;DHT22;26931;43.498;-1.506;2023-05-07T01:29:59;18.90;99.20
34644;DHT22;26931;43.498;-1.506;2023-05-07T01:32:43;18.90;99.20
34644;DHT22;26931;43.498;-1.506;2023-05-07T01:35:19;18.90;99.20
34644;DHT22;26931;43.498;-1.506;2023-05-07T01:37:47;19.10;99.30
34644;DHT22;26931;43.498;-1.506;2023-05-07T01:40:13;18.70;99.10
34644;DHT22;26931;43.498;-1.506;2023-05-07T01:42:41;18.80;99.10
34644;DHT22;26931;43.498;-1.506;2023-05-07T01:45:07;18.80;99.10
34644;DHT22;26931;43.498;-1.506;2023-05-07T01:47:34;18.80;99.10
34644;DHT22;26931;43.498;-1.506;2023-05-07T01:50:00;18.80;99.00
34644;DHT22;26931;43.498;-1.506;2023-05-07T01:52:27;18.70;99.10
34644;DHT22;26931;43.498;-1.506;2023-05-07T01:54:54;18.80;99.00
34644;DHT22;26931;43.498;-1.506;2023-05-07T01:57:20;18.80;99.00
34644;DHT22;26931;43.498;-1.506;2023-05-07T01:59:46;18.80;99.00
34644;DHT22;26931;43.498;-1.506;2023-05-07T02:02:12;18.70;99.00
34644;DHT22;26931;43.498;-1.506;2023-05-07T02:04:38;18.70;99.00
34644;DHT22;26931;43.498;-1.506;2023-05-07T02:07:04;18.70;99.00
34644;DHT22;26931;43.498;-1.506;2023-05-07T02:09:30;18.60;99.10
34644;DHT22;26931;43.498;-1.506;2023-05-07T02:11:56;18.90;99.10
34644;DHT22;26931;43.498;-1.506;2023-05-07T02:14:22;18.80;99.10
34644;DHT22;26931;43.498;-1.506;2023-05-07T02:16:49;18.80;99.00
34644;DHT22;26931;43.498;-1.506;2023-05-07T02:19:15;18.80;99.00
34644;DHT22;26931;43.498;-1.506;2023-05-07T02:21:41;18.80;99.00
34644;DHT22;26931;43.498;-1.506;2023-05-07T02:24:07;18.80;98.90
34644;DHT22;26931;43.498;-1.506;2023-05-07T02:26:33;18.80;98.90
34644;DHT22;26931;43.498;-1.506;2023-05-07T02:28:59;18.80;98.90
34644;DHT22;26931;43.498;-1.506;2023-05-07T02:31:26;18.80;98.90
34644;DHT22;26931;43.498;-1.506;2023-05-07T02:33:54;18.80;98.80
34644;DHT22;26931;43.498;-1.506;2023-05-07T02:36:20;18.80;98.80
34644;DHT22;26931;43.498;-1.506;2023-05-07T02:38:46;18.90;98.90
34644;DHT22;26931;43.498;-1.506;2023-05-07T02:41:12;18.80;98.80
34644;DHT22;26931;43.498;-1.506;2023-05-07T02:43:38;18.70;98.80
34644;DHT22;26931;43.498;-1.506;2023-05-07T02:46:06;18.80;98.80
34644;DHT22;26931;43.498;-1.506;2023-05-07T02:48:33;18.80;98.80
34644;DHT22;26931;43.498;-1.506;2023-05-07T02:50:59;18.70;98.70
34644;DHT22;26931;43.498;-1.506;2023-05-07T02:53:26;18.80;98.70
34644;DHT22;26931;43.498;-1.506;2023-05-07T02:55:56;18.80;98.70
34644;DHT22;26931;43.498;-1.506;2023-05-07T02:58:23;18.70;98.60
34644;DHT22;26931;43.498;-1.506;2023-05-07T03:00:50;18.80;98.60
34644;DHT22;26931;43.498;-1.506;2023-05-07T03:03:16;18.80;98.90
34644;DHT22;26931;43.498;-1.506;2023-05-07T03:05:42;19.00;98.60
34644;DHT22;26931;43.498;-1.506;2023-05-07T03:08:09;18.90;98.60
34644;DHT22;26931;43.498;-1.506;2023-05-07T03:10:36;18.80;98.50
34644;DHT22;26931;43.498;-1.506;2023-05-07T03:13:03;18.80;98.80
34644;DHT22;26931;43.498;-1.506;2023-05-07T03:15:29;18.80;98.40
34644;DHT22;26931;43.498;-1.506;2023-05-07T03:17:56;18.80;98.40
34644;DHT22;26931;43.498;-1.506;2023-05-07T03:20:22;18.80;98.40
34644;DHT22;26931;43.498;-1.506;2023-05-07T03:22:48;18.80;98.40
34644;DHT22;26931;43.498;-1.506;2023-05-07T03:25:14;18.80;98.40
34644;DHT22;26931;43.498;-1.506;2023-05-07T03:27:40;18.70;98.40
34644;DHT22;26931;43.498;-1.506;2023-05-07T03:30:10;18.80;98.40
34644;DHT22;26931;43.498;-1.506;2023-05-07T03:32:36;19.00;98.50
34644;DHT22;26931;43.498;-1.506;2023-05-07T03:35:03;18.80;98.40
34644;DHT22;26931;43.498;-1.506;2023-05-07T03:37:29;18.70;98.40
34644;DHT22;26931;43.498;-1.506;2023-05-07T03:39:55;18.80;98.50
34644;DHT22;26931;43.498;-1.506;2023-05-07T03:42:21;18.80;98.60
34644;DHT22;26931;43.498;-1.506;2023-05-07T03:44:48;18.90;98.60
34644;DHT22;26931;43.498;-1.506;2023-05-07T03:47:14;18.80;98.70
34644;DHT22;26931;43.498;-1.506;2023-05-07T03:49:40;18.80;98.70
34644;DHT22;26931;43.498;-1.506;2023-05-07T03:52:06;18.90;98.70
34644;DHT22;26931;43.498;-1.506;2023-05-07T03:54:32;18.80;98.70
34644;DHT22;26931;43.498;-1.506;2023-05-07T03:56:59;18.90;98.70
34644;DHT22;26931;43.498;-1.506;2023-05-07T03:59:25;18.80;98.70
34644;DHT22;26931;43.498;-1.506;2023-05-07T04:01:51;18.80;98.70
34644;DHT22;26931;43.498;-1.506;2023-05-07T04:04:17;18.80;98.70
34644;DHT22;26931;43.498;-1.506;2023-05-07T04:06:43;18.90;98.70
34644;DHT22;26931;43.498;-1.506;2023-05-07T04:09:09;18.80;98.60
34644;DHT22;26931;43.498;-1.506;2023-05-07T04:11:36;18.80;98.60
34644;DHT22;26931;43.498;-1.506;2023-05-07T04:14:02;19.00;98.70
34644;DHT22;26931;43.498;-1.506;2023-05-07T04:16:28;18.80;98.70
34644;DHT22;26931;43.498;-1.506;2023-05-07T04:18:54;18.80;98.60
34644;DHT22;26931;43.498;-1.506;2023-05-07T04:21:21;18.80;98.60
34644;DHT22;26931;43.498;-1.506;2023-05-07T04:23:47;18.70;98.70
34644;DHT22;26931;43.498;-1.506;2023-05-07T04:26:14;18.70;98.80
34644;DHT22;26931;43.498;-1.506;2023-05-07T04:28:41;18.90;98.80
34644;DHT22;26931;43.498;-1.506;2023-05-07T04:31:07;18.80;98.80
34644;DHT22;26931;43.498;-1.506;2023-05-07T04:33:34;18.80;98.70
34644;DHT22;26931;43.498;-1.506;2023-05-07T04:36:03;18.70;98.70
34644;DHT22;26931;43.498;-1.506;2023-05-07T04:38:30;18.80;98.70
34644;DHT22;26931;43.498;-1.506;2023-05-07T04:40:58;18.80;98.70
34644;DHT22;26931;43.498;-1.506;2023-05-07T04:43:24;18.70;98.70
34644;DHT22;26931;43.498;-1.506;2023-05-07T04:45:51;18.70;98.70
34644;DHT22;26931;43.498;-1.506;2023-05-07T04:48:17;18.70;98.70
34644;DHT22;26931;43.498;-1.506;2023-05-07T04:50:50;18.70;98.70
34644;DHT22;26931;43.498;-1.506;2023-05-07T04:53:17;18.70;98.70
34644;DHT22;26931;43.498;-1.506;2023-05-07T04:55:43;18.70;98.70
34644;DHT22;26931;43.498;-1.506;2023-05-07T04:58:11;18.70;98.70
34644;DHT22;26931;43.498;-1.506;2023-05-07T05:00:38;18.70;98.80
34644;DHT22;26931;43.498;-1.506;2023-05-07T05:03:06;18.70;98.80
34644;DHT22;26931;43.498;-1.506;2023-05-07T05:05:32;18.90;98.90
34644;DHT22;26931;43.498;-1.506;2023-05-07T05:07:58;18.70;98.90
34644;DHT22;26931;43.498;-1.506;2023-05-07T05:10:24;18.70;98.90
34644;DHT22;26931;43.498;-1.506;2023-05-07T05:12:51;18.70;98.80
34644;DHT22;26931;43.498;-1.506;2023-05-07T05:15:17;18.70;98.80
34644;DHT22;26931;43.498;-1.506;2023-05-07T05:17:43;18.70;98.90
34644;DHT22;26931;43.498;-1.506;2023-05-07T05:20:10;18.70;98.90
34644;DHT22;26931;43.498;-1.506;2023-05-07T05:22:39;18.60;98.90
34644;DHT22;26931;43.498;-1.506;2023-05-07T05:25:05;18.60;98.90
34644;DHT22;26931;43.498;-1.506;2023-05-07T05:27:31;18.70;99.00
34644;DHT22;26931;43.498;-1.506;2023-05-07T05:29:57;18.70;99.00
34644;DHT22;26931;43.498;-1.506;2023-05-07T05:32:23;18.90;99.10
34644;DHT22;26931;43.498;-1.506;2023-05-07T05:34:49;18.70;99.00
34644;DHT22;26931;43.498;-1.506;2023-05-07T05:37:18;18.70;99.10
34644;DHT22;26931;43.498;-1.506;2023-05-07T05:39:44;19.00;99.10
34644;DHT22;26931;43.498;-1.506;2023-05-07T05:42:10;18.70;99.10
34644;DHT22;26931;43.498;-1.506;2023-05-07T05:44:36;18.70;99.10
34644;DHT22;26931;43.498;-1.506;2023-05-07T05:47:03;18.80;99.10
34644;DHT22;26931;43.498;-1.506;2023-05-07T05:49:29;18.80;99.10
34644;DHT22;26931;43.498;-1.506;2023-05-07T05:51:55;18.80;99.00
34644;DHT22;26931;43.498;-1.506;2023-05-07T05:54:21;18.70;99.00
34644;DHT22;26931;43.498;-1.506;2023-05-07T05:56:47;18.80;99.00
34644;DHT22;26931;43.498;-1.506;2023-05-07T05:59:13;18.80;99.00
34644;DHT22;26931;43.498;-1.506;2023-05-07T06:01:39;18.80;98.90
34644;DHT22;26931;43.498;-1.506;2023-05-07T06:04:06;18.80;98.90
34644;DHT22;26931;43.498;-1.506;2023-05-07T06:06:32;18.80;98.90
34644;DHT22;26931;43.498;-1.506;2023-05-07T06:08:58;18.80;98.90
34644;DHT22;26931;43.498;-1.506;2023-05-07T06:11:24;18.80;98.80
34644;DHT22;26931;43.498;-1.506;2023-05-07T06:13:50;18.80;98.80
34644;DHT22;26931;43.498;-1.506;2023-05-07T06:16:17;18.70;98.80
34644;DHT22;26931;43.498;-1.506;2023-05-07T06:18:43;18.70;98.80
34644;DHT22;26931;43.498;-1.506;2023-05-07T06:21:10;18.70;98.80
34644;DHT22;26931;43.498;-1.506;2023-05-07T06:23:36;18.80;98.80
34644;DHT22;26931;43.498;-1.506;2023-05-07T06:26:03;18.70;98.70
34644;DHT22;26931;43.498;-1.506;2023-05-07T06:28:29;18.80;98.80
34644;DHT22;26931;43.498;-1.506;2023-05-07T06:31:15;18.80;98.80
34644;DHT22;26931;43.498;-1.506;2023-05-07T06:33:42;18.80;98.80
34644;DHT22;26931;43.498;-1.506;2023-05-07T06:36:09;18.80;98.80
34644;DHT22;26931;43.498;-1.506;2023-05-07T06:38:35;18.90;98.80
34644;DHT22;26931;43.498;-1.506;2023-05-07T06:41:01;18.80;98.70
34644;DHT22;26931;43.498;-1.506;2023-05-07T06:43:27;18.90;98.70
34644;DHT22;26931;43.498;-1.506;2023-05-07T06:45:54;18.80;98.60
34644;DHT22;26931;43.498;-1.506;2023-05-07T06:48:20;18.90;98.70
34644;DHT22;26931;43.498;-1.506;2023-05-07T06:50:46;18.90;98.60
34644;DHT22;26931;43.498;-1.506;2023-05-07T06:53:12;18.90;98.50
34644;DHT22;26931;43.498;-1.506;2023-05-07T06:55:38;18.90;98.30
34644;DHT22;26931;43.498;-1.506;2023-05-07T06:58:04;19.00;98.10
34644;DHT22;26931;43.498;-1.506;2023-05-07T07:00:31;19.00;98.00
34644;DHT22;26931;43.498;-1.506;2023-05-07T07:02:57;19.00;97.90
34644;DHT22;26931;43.498;-1.506;2023-05-07T07:05:24;19.00;97.80
34644;DHT22;26931;43.498;-1.506;2023-05-07T07:07:51;19.00;97.70
34644;DHT22;26931;43.498;-1.506;2023-05-07T07:10:20;19.00;97.60
34644;DHT22;26931;43.498;-1.506;2023-05-07T07:12:46;19.10;97.50
34644;DHT22;26931;43.498;-1.506;2023-05-07T07:15:13;19.10;97.50
34644;DHT22;26931;43.498;-1.506;2023-05-07T07:17:39;19.10;97.40
34644;DHT22;26931;43.498;-1.506;2023-05-07T07:20:05;19.30;97.40
34644;DHT22;26931;43.498;-1.506;2023-05-07T07:22:32;19.20;97.30
34644;DHT22;26931;43.498;-1.506;2023-05-07T07:24:57;19.20;97.20
34644;DHT22;26931;43.498;-1.506;2023-05-07T07:27:23;19.20;97.10
34644;DHT22;26931;43.498;-1.506;2023-05-07T07:29:50;19.20;97.10
34644;DHT22;26931;43.498;-1.506;2023-05-07T07:32:15;19.30;97.10
34644;DHT22;26931;43.498;-1.506;2023-05-07T07:34:41;19.20;97.00
34644;DHT22;26931;43.498;-1.506;2023-05-07T07:37:07;19.30;97.00
34644;DHT22;26931;43.498;-1.506;2023-05-07T07:39:37;19.50;97.00
34644;DHT22;26931;43.498;-1.506;2023-05-07T07:42:06;19.30;96.90
34644;DHT22;26931;43.498;-1.506;2023-05-07T07:44:32;19.30;96.90
34644;DHT22;26931;43.498;-1.506;2023-05-07T07:46:58;19.60;96.90
34644;DHT22;26931;43.498;-1.506;2023-05-07T07:49:24;19.60;96.80
34644;DHT22;26931;43.498;-1.506;2023-05-07T07:51:50;19.40;96.80
34644;DHT22;26931;43.498;-1.506;2023-05-07T07:54:17;19.40;96.70
34644;DHT22;26931;43.498;-1.506;2023-05-07T07:56:43;19.50;96.70
34644;DHT22;26931;43.498;-1.506;2023-05-07T07:59:09;19.50;96.60
34644;DHT22;26931;43.498;-1.506;2023-05-07T08:01:35;19.50;96.60
34644;DHT22;26931;43.498;-1.506;2023-05-07T08:04:01;19.50;96.60
34644;DHT22;26931;43.498;-1.506;2023-05-07T08:06:29;19.50;96.60
34644;DHT22;26931;43.498;-1.506;2023-05-07T08:08:55;19.50;96.90
34644;DHT22;26931;43.498;-1.506;2023-05-07T08:11:21;19.50;96.60
34644;DHT22;26931;43.498;-1.506;2023-05-07T08:13:48;19.50;96.60
34644;DHT22;26931;43.498;-1.506;2023-05-07T08:16:14;19.50;96.60
34644;DHT22;26931;43.498;-1.506;2023-05-07T08:18:40;19.70;96.60
34644;DHT22;26931;43.498;-1.506;2023-05-07T08:21:06;19.60;96.60
34644;DHT22;26931;43.498;-1.506;2023-05-07T08:23:32;19.60;96.50
34644;DHT22;26931;43.498;-1.506;2023-05-07T08:26:00;19.60;96.50
34644;DHT22;26931;43.498;-1.506;2023-05-07T08:28:26;19.60;96.50
34644;DHT22;26931;43.498;-1.506;2023-05-07T08:30:52;19.50;96.40
34644;DHT22;26931;43.498;-1.506;2023-05-07T08:33:18;19.70;96.40
34644;DHT22;26931;43.498;-1.506;2023-05-07T08:35:44;19.70;96.30
34644;DHT22;26931;43.498;-1.506;2023-05-07T08:38:10;19.80;96.30
34644;DHT22;26931;43.498;-1.506;2023-05-07T08:40:38;20.00;96.20
34644;DHT22;26931;43.498;-1.506;2023-05-07T08:43:08;19.90;96.10
34644;DHT22;26931;43.498;-1.506;2023-05-07T08:45:35;19.90;96.10
34644;DHT22;26931;43.498;-1.506;2023-05-07T08:48:09;20.00;96.00
34644;DHT22;26931;43.498;-1.506;2023-05-07T08:50:41;19.90;95.80
34644;DHT22;26931;43.498;-1.506;2023-05-07T08:53:07;19.90;95.80
34644;DHT22;26931;43.498;-1.506;2023-05-07T08:55:33;20.20;95.90
34644;DHT22;26931;43.498;-1.506;2023-05-07T08:58:00;20.00;95.90
34644;DHT22;26931;43.498;-1.506;2023-05-07T09:00:26;20.00;95.70
34644;DHT22;26931;43.498;-1.506;2023-05-07T09:02:53;20.00;95.70
34644;DHT22;26931;43.498;-1.506;2023-05-07T09:05:20;20.10;95.60
34644;DHT22;26931;43.498;-1.506;2023-05-07T09:07:46;20.10;95.60
34644;DHT22;26931;43.498;-1.506;2023-05-07T09:10:12;20.10;95.60
34644;DHT22;26931;43.498;-1.506;2023-05-07T09:12:39;20.10;95.50
34644;DHT22;26931;43.498;-1.506;2023-05-07T09:15:06;20.10;95.50
34644;DHT22;26931;43.498;-1.506;2023-05-07T09:17:32;20.20;95.60
34644;DHT22;26931;43.498;-1.506;2023-05-07T09:20:06;20.40;95.60
34644;DHT22;26931;43.498;-1.506;2023-05-07T09:22:33;20.20;95.50
34644;DHT22;26931;43.498;-1.506;2023-05-07T09:24:59;20.20;95.50
34644;DHT22;26931;43.498;-1.506;2023-05-07T09:27:25;20.30;95.60
34644;DHT22;26931;43.498;-1.506;2023-05-07T09:29:51;20.30;95.50
34644;DHT22;26931;43.498;-1.506;2023-05-07T09:32:18;20.30;95.50
34644;DHT22;26931;43.498;-1.506;2023-05-07T09:34:44;20.40;95.50
34644;DHT22;26931;43.498;-1.506;2023-05-07T09:37:12;20.30;95.30
34644;DHT22;26931;43.498;-1.506;2023-05-07T09:39:49;20.40;95.30
34644;DHT22;26931;43.498;-1.506;2023-05-07T09:42:15;20.60;95.30
34644;DHT22;26931;43.498;-1.506;2023-05-07T09:44:43;20.40;95.20
34644;DHT22;26931;43.498;-1.506;2023-05-07T09:47:10;20.30;95.10
34644;DHT22;26931;43.498;-1.506;2023-05-07T09:49:39;20.40;95.10
34644;DHT22;26931;43.498;-1.506;2023-05-07T09:52:07;20.40;95.10
34644;DHT22;26931;43.498;-1.506;2023-05-07T09:54:36;20.30;95.10
34644;DHT22;26931;43.498;-1.506;2023-05-07T09:57:06;20.30;95.00
34644;DHT22;26931;43.498;-1.506;2023-05-07T09:59:33;20.30;95.10
34644;DHT22;26931;43.498;-1.506;2023-05-07T10:02:03;20.40;95.10
34644;DHT22;26931;43.498;-1.506;2023-05-07T10:04:30;20.40;95.10
34644;DHT22;26931;43.498;-1.506;2023-05-07T10:06:56;20.40;95.10
34644;DHT22;26931;43.498;-1.506;2023-05-07T10:09:26;20.40;95.10
34644;DHT22;26931;43.498;-1.506;2023-05-07T10:11:52;20.40;95.20
34644;DHT22;26931;43.498;-1.506;2023-05-07T10:14:21;20.30;95.20
34644;DHT22;26931;43.498;-1.506;2023-05-07T10:16:48;20.40;95.20
34644;DHT22;26931;43.498;-1.506;2023-05-07T10:19:14;20.40;95.20
34644;DHT22;26931;43.498;-1.506;2023-05-07T10:21:48;20.30;95.20
34644;DHT22;26931;43.498;-1.506;2023-05-07T10:24:25;20.40;95.20
34644;DHT22;26931;43.498;-1.506;2023-05-07T10:26:53;20.40;95.10
34644;DHT22;26931;43.498;-1.506;2023-05-07T10:29:37;20.50;95.00
34644;DHT22;26931;43.498;-1.506;2023-05-07T10:34:44;20.60;95.00
34644;DHT22;26931;43.498;-1.506;2023-05-07T10:37:11;20.60;95.00
34644;DHT22;26931;43.498;-1.506;2023-05-07T10:39:37;20.60;95.00
34644;DHT22;26931;43.498;-1.506;2023-05-07T10:42:14;20.70;95.00
34644;DHT22;26931;43.498;-1.506;2023-05-07T10:44:40;20.70;94.90
34644;DHT22;26931;43.498;-1.506;2023-05-07T10:47:11;20.80;94.80
34644;DHT22;26931;43.498;-1.506;2023-05-07T10:54:44;20.90;94.50
34644;DHT22;26931;43.498;-1.506;2023-05-07T10:57:33;20.90;94.30
34644;DHT22;26931;43.498;-1.506;2023-05-07T11:00:04;20.90;94.20
34644;DHT22;26931;43.498;-1.506;2023-05-07T11:05:26;20.90;94.30
34644;DHT22;26931;43.498;-1.506;2023-05-07T11:07:59;20.90;94.40
34644;DHT22;26931;43.498;-1.506;2023-05-07T11:10:50;20.90;94.30
34644;DHT22;26931;43.498;-1.506;2023-05-07T11:13:16;20.90;94.30
34644;DHT22;26931;43.498;-1.506;2023-05-07T11:15:47;20.90;94.30
34644;DHT22;26931;43.498;-1.506;2023-05-07T11:18:15;20.90;94.30
34644;DHT22;26931;43.498;-1.506;2023-05-07T11:20:49;21.00;94.30
34644;DHT22;26931;43.498;-1.506;2023-05-07T11:26:06;21.10;94.10
34644;DHT22;26931;43.498;-1.506;2023-05-07T11:28:43;20.90;94.00
34644;DHT22;26931;43.498;-1.506;2023-05-07T11:31:10;20.90;94.00
34644;DHT22;26931;43.498;-1.506;2023-05-07T11:33:37;20.90;93.90
34644;DHT22;26931;43.498;-1.506;2023-05-07T11:36:04;21.00;94.00
34644;DHT22;26931;43.498;-1.506;2023-05-07T11:38:35;21.00;93.90
34644;DHT22;26931;43.498;-1.506;2023-05-07T11:41:01;20.90;93.80
34644;DHT22;26931;43.498;-1.506;2023-05-07T11:43:28;20.90;93.80
34644;DHT22;26931;43.498;-1.506;2023-05-07T11:45:54;20.90;93.80
34644;DHT22;26931;43.498;-1.506;2023-05-07T11:48:21;20.80;93.80
34644;DHT22;26931;43.498;-1.506;2023-05-07T11:51:00;21.00;93.90
34644;DHT22;26931;43.498;-1.506;2023-05-07T11:53:28;20.80;93.80
34644;DHT22;26931;43.498;-1.506;2023-05-07T11:56:05;20.80;93.80
34644;DHT22;26931;43.498;-1.506;2023-05-07T11:58:31;20.80;93.80
34644;DHT22;26931;43.498;-1.506;2023-05-07T12:00:57;20.80;93.80
34644;DHT22;26931;43.498;-1.506;2023-05-07T12:03:23;20.80;93.80
34644;DHT22;26931;43.498;-1.506;2023-05-07T12:05:49;20.70;93.60
34644;DHT22;26931;43.498;-1.506;2023-05-07T12:08:19;20.70;93.40
34644;DHT22;26931;43.498;-1.506;2023-05-07T12:10:48;20.70;93.40
34644;DHT22;26931;43.498;-1.506;2023-05-07T12:13:15;20.70;93.50
34644;DHT22;26931;43.498;-1.506;2023-05-07T12:15:42;20.60;93.40
34644;DHT22;26931;43.498;-1.506;2023-05-07T12:18:09;20.70;93.40
34644;DHT22;26931;43.498;-1.506;2023-05-07T12:20:36;20.70;93.40
34644;DHT22;26931;43.498;-1.506;2023-05-07T12:23:03;20.70;93.60
34644;DHT22;26931;43.498;-1.506;2023-05-07T12:25:37;20.70;93.80
34644;DHT22;26931;43.498;-1.506;2023-05-07T12:28:03;20.90;93.90
34644;DHT22;26931;43.498;-1.506;2023-05-07T12:30:37;20.60;94.00
34644;DHT22;26931;43.498;-1.506;2023-05-07T12:33:04;20.70;94.10
34644;DHT22;26931;43.498;-1.506;2023-05-07T12:35:31;20.70;94.10
34644;DHT22;26931;43.498;-1.506;2023-05-07T12:37:59;20.70;94.20
34644;DHT22;26931;43.498;-1.506;2023-05-07T12:40:37;20.70;94.10
34644;DHT22;26931;43.498;-1.506;2023-05-07T12:43:03;20.70;94.10
34644;DHT22;26931;43.498;-1.506;2023-05-07T12:45:29;20.60;94.00
34644;DHT22;26931;43.498;-1.506;2023-05-07T12:47:56;20.60;94.00
34644;DHT22;26931;43.498;-1.506;2023-05-07T12:50:31;20.60;94.00
34644;DHT22;26931;43.498;-1.506;2023-05-07T12:52:58;20.80;94.10
34644;DHT22;26931;43.498;-1.506;2023-05-07T12:55:24;20.70;94.10
34644;DHT22;26931;43.498;-1.506;2023-05-07T12:57:50;20.70;94.10
34644;DHT22;26931;43.498;-1.506;2023-05-07T13:00:17;20.70;94.10
34644;DHT22;26931;43.498;-1.506;2023-05-07T13:02:44;20.80;94.00
34644;DHT22;26931;43.498;-1.506;2023-05-07T13:05:11;20.90;93.90
34644;DHT22;26931;43.498;-1.506;2023-05-07T13:07:37;20.80;93.70
34644;DHT22;26931;43.498;-1.506;2023-05-07T13:10:04;20.70;93.50
34644;DHT22;26931;43.498;-1.506;2023-05-07T13:12:30;20.80;93.40
34644;DHT22;26931;43.498;-1.506;2023-05-07T13:14:56;20.70;93.30
34644;DHT22;26931;43.498;-1.506;2023-05-07T13:17:22;20.80;93.40
34644;DHT22;26931;43.498;-1.506;2023-05-07T13:19:48;20.70;93.40
34644;DHT22;26931;43.498;-1.506;2023-05-07T13:22:14;20.70;93.30
34644;DHT22;26931;43.498;-1.506;2023-05-07T13:24:40;20.70;93.20
34644;DHT22;26931;43.498;-1.506;2023-05-07T13:27:08;20.60;93.10
34644;DHT22;26931;43.498;-1.506;2023-05-07T13:29:34;20.70;93.10
34644;DHT22;26931;43.498;-1.506;2023-05-07T13:32:01;20.70;93.20
34644;DHT22;26931;43.498;-1.506;2023-05-07T13:34:28;20.70;93.10
34644;DHT22;26931;43.498;-1.506;2023-05-07T13:36:54;20.60;93.00
34644;DHT22;26931;43.498;-1.506;2023-05-07T13:39:21;20.70;93.10
34644;DHT22;26931;43.498;-1.506;2023-05-07T13:41:47;20.90;93.10
34644;DHT22;26931;43.498;-1.506;2023-05-07T13:44:13;20.90;93.20
34644;DHT22;26931;43.498;-1.506;2023-05-07T13:46:39;20.80;93.20
34644;DHT22;26931;43.498;-1.506;2023-05-07T13:49:05;20.60;93.20
34644;DHT22;26931;43.498;-1.506;2023-05-07T13:51:31;20.60;93.20
34644;DHT22;26931;43.498;-1.506;2023-05-07T13:53:57;20.60;93.20
34644;DHT22;26931;43.498;-1.506;2023-05-07T13:56:24;20.60;93.30
34644;DHT22;26931;43.498;-1.506;2023-05-07T13:58:50;20.60;93.30
34644;DHT22;26931;43.498;-1.506;2023-05-07T14:01:16;20.60;93.40
34644;DHT22;26931;43.498;-1.506;2023-05-07T14:03:42;20.60;93.30
34644;DHT22;26931;43.498;-1.506;2023-05-07T14:06:08;20.60;93.30
34644;DHT22;26931;43.498;-1.506;2023-05-07T14:08:34;20.60;93.30
34644;DHT22;26931;43.498;-1.506;2023-05-07T14:11:00;20.80;93.30
34644;DHT22;26931;43.498;-1.506;2023-05-07T14:13:26;20.70;93.20
34644;DHT22;26931;43.498;-1.506;2023-05-07T14:15:53;20.60;93.10
34644;DHT22;26931;43.498;-1.506;2023-05-07T14:18:19;20.60;93.10
34644;DHT22;26931;43.498;-1.506;2023-05-07T14:20:45;20.60;93.10
34644;DHT22;26931;43.498;-1.506;2023-05-07T14:23:12;20.70;93.20
34644;DHT22;26931;43.498;-1.506;2023-05-07T14:25:38;20.60;93.20
34644;DHT22;26931;43.498;-1.506;2023-05-07T14:28:09;20.60;93.20
34644;DHT22;26931;43.498;-1.506;2023-05-07T14:30:35;20.70;93.20
34644;DHT22;26931;43.498;-1.506;2023-05-07T14:33:01;20.70;93.20
34644;DHT22;26931;43.498;-1.506;2023-05-07T14:35:27;20.80;93.20
34644;DHT22;26931;43.498;-1.506;2023-05-07T14:37:53;20.70;93.10
34644;DHT22;26931;43.498;-1.506;2023-05-07T14:40:28;20.60;93.00
34644;DHT22;26931;43.498;-1.506;2023-05-07T14:42:54;20.60;93.00
34644;DHT22;26931;43.498;-1.506;2023-05-07T14:45:22;20.60;93.00
34644;DHT22;26931;43.498;-1.506;2023-05-07T14:47:48;20.60;93.10
34644;DHT22;26931;43.498;-1.506;2023-05-07T14:50:14;20.60;93.10
34644;DHT22;26931;43.498;-1.506;2023-05-07T14:52:40;20.60;93.20
34644;DHT22;26931;43.498;-1.506;2023-05-07T14:55:07;20.70;93.20
34644;DHT22;26931;43.498;-1.506;2023-05-07T14:57:33;20.70;93.30
34644;DHT22;26931;43.498;-1.506;2023-05-07T15:00:01;20.70;93.30
34644;DHT22;26931;43.498;-1.506;2023-05-07T15:02:27;20.70;93.30
34644;DHT22;26931;43.498;-1.506;2023-05-07T15:04:53;20.60;93.30
34644;DHT22;26931;43.498;-1.506;2023-05-07T15:07:19;20.70;93.30
34644;DHT22;26931;43.498;-1.506;2023-05-07T15:09:45;20.60;93.30
34644;DHT22;26931;43.498;-1.506;2023-05-07T15:12:13;20.70;93.30
34644;DHT22;26931;43.498;-1.506;2023-05-07T15:14:39;20.70;93.30
34644;DHT22;26931;43.498;-1.506;2023-05-07T15:17:05;20.70;93.30
34644;DHT22;26931;43.498;-1.506;2023-05-07T15:19:31;20.70;93.20
34644;DHT22;26931;43.498;-1.506;2023-05-07T15:21:57;20.70;93.20
34644;DHT22;26931;43.498;-1.506;2023-05-07T15:24:24;20.70;93.10
34644;DHT22;26931;43.498;-1.506;2023-05-07T15:26:51;20.90;93.10
34644;DHT22;26931;43.498;-1.506;2023-05-07T15:29:17;20.60;93.00